sensor_id;sensor_type;location;lat;lon;timestamp;pressure;altitude;pressure_sealevel;temperature;humidity
84809;BME280;75044;53.126;18.008;2024-01-06T00:00:19;100709.89;;;-1.26;71.36
84809;BME280;75044;53.126;18.008;2024-01-06T00:01:46;100713.52;;;-1.28;71.24
84809;BME280;75044;53.126;18.008;2024-01-06T00:02:50;100713.54;;;-1.30;71.05
84809;BME280;75044;53.126;18.008;2024-01-06T00:03:53;100716.79;;;-1.30;71.21
84809;BME280;75044;53.126;18.008;2024-01-06T00:04:57;100718.52;;;-1.32;71.25
84809;BME280;75044;53.126;18.008;2024-01-06T00:06:03;100720.58;;;-1.32;71.33
84809;BME280;75044;53.126;18.008;2024-01-06T00:07:06;100721.42;;;-1.31;71.40
84809;BME280;75044;53.126;18.008;2024-01-06T00:08:12;100715.93;;;-1.30;71.57
84809;BME280;75044;53.126;18.008;2024-01-06T00:09:16;100714.04;;;-1.29;71.48
84809;BME280;75044;53.126;18.008;2024-01-06T00:10:19;100709.75;;;-1.28;71.30
84809;BME280;75044;53.126;18.008;2024-01-06T00:11:23;100711.96;;;-1.28;71.40
84809;BME280;75044;53.126;18.008;2024-01-06T00:12:26;100709.05;;;-1.28;71.44
84809;BME280;75044;53.126;18.008;2024-01-06T00:13:29;100710.92;;;-1.26;71.64
84809;BME280;75044;53.126;18.008;2024-01-06T00:14:32;100711.09;;;-1.25;71.37
84809;BME280;75044;53.126;18.008;2024-01-06T00:15:36;100712.96;;;-1.24;71.60
84809;BME280;75044;53.126;18.008;2024-01-06T00:16:39;100712.44;;;-1.22;71.33
84809;BME280;75044;53.126;18.008;2024-01-06T00:17:43;100712.95;;;-1.22;71.30
84809;BME280;75044;53.126;18.008;2024-01-06T00:18:47;100713.96;;;-1.21;71.41
84809;BME280;75044;53.126;18.008;2024-01-06T00:19:50;100712.95;;;-1.22;71.49
84809;BME280;75044;53.126;18.008;2024-01-06T00:20:54;100708.14;;;-1.21;71.25
84809;BME280;75044;53.126;18.008;2024-01-06T00:21:57;100707.29;;;-1.23;71.29
84809;BME280;75044;53.126;18.008;2024-01-06T00:23:00;100709.18;;;-1.23;71.49
84809;BME280;75044;53.126;18.008;2024-01-06T00:24:04;100708.15;;;-1.22;71.33
84809;BME280;75044;53.126;18.008;2024-01-06T00:25:07;100708.33;;;-1.22;71.38
84809;BME280;75044;53.126;18.008;2024-01-06T00:26:11;100707.46;;;-1.22;71.66
84809;BME280;75044;53.126;18.008;2024-01-06T00:27:14;100709.85;;;-1.21;71.59
84809;BME280;75044;53.126;18.008;2024-01-06T00:28:19;100707.96;;;-1.21;71.76
84809;BME280;75044;53.126;18.008;2024-01-06T00:29:22;100706.59;;;-1.20;71.83
84809;BME280;75044;53.126;18.008;2024-01-06T00:30:27;100706.41;;;-1.20;71.69
84809;BME280;75044;53.126;18.008;2024-01-06T00:31:31;100704.17;;;-1.18;71.74
84809;BME280;75044;53.126;18.008;2024-01-06T00:32:34;100700.74;;;-1.18;71.67
84809;BME280;75044;53.126;18.008;2024-01-06T00:33:39;100700.73;;;-1.17;71.50
84809;BME280;75044;53.126;18.008;2024-01-06T00:34:43;100699.00;;;-1.16;71.45
84809;BME280;75044;53.126;18.008;2024-01-06T00:35:48;100701.08;;;-1.16;71.51
84809;BME280;75044;53.126;18.008;2024-01-06T00:36:51;100699.88;;;-1.16;71.73
84809;BME280;75044;53.126;18.008;2024-01-06T00:37:54;100700.56;;;-1.17;71.47
84809;BME280;75044;53.126;18.008;2024-01-06T00:38:58;100702.80;;;-1.18;71.78
84809;BME280;75044;53.126;18.008;2024-01-06T00:40:01;100704.84;;;-1.17;71.78
84809;BME280;75044;53.126;18.008;2024-01-06T00:41:06;100708.27;;;-1.18;71.68
84809;BME280;75044;53.126;18.008;2024-01-06T00:42:09;100711.19;;;-1.18;71.68
84809;BME280;75044;53.126;18.008;2024-01-06T00:43:13;100711.70;;;-1.17;71.85
84809;BME280;75044;53.126;18.008;2024-01-06T00:44:16;100714.26;;;-1.17;71.74
84809;BME280;75044;53.126;18.008;2024-01-06T00:45:19;100713.41;;;-1.16;71.64
84809;BME280;75044;53.126;18.008;2024-01-06T00:46:23;100713.92;;;-1.16;72.02
84809;BME280;75044;53.126;18.008;2024-01-06T00:47:27;100719.03;;;-1.15;71.82
84809;BME280;75044;53.126;18.008;2024-01-06T00:48:30;100715.96;;;-1.15;71.86
84809;BME280;75044;53.126;18.008;2024-01-06T00:49:35;100715.63;;;-1.16;71.71
84809;BME280;75044;53.126;18.008;2024-01-06T00:50:38;100713.41;;;-1.17;71.83
84809;BME280;75044;53.126;18.008;2024-01-06T00:51:41;100716.33;;;-1.17;71.65
84809;BME280;75044;53.126;18.008;2024-01-06T00:52:45;100714.09;;;-1.16;72.07
84809;BME280;75044;53.126;18.008;2024-01-06T00:53:48;100717.15;;;-1.15;71.88
84809;BME280;75044;53.126;18.008;2024-01-06T00:54:52;100715.44;;;-1.14;71.99
84809;BME280;75044;53.126;18.008;2024-01-06T00:55:55;100716.80;;;-1.13;71.71
84809;BME280;75044;53.126;18.008;2024-01-06T00:56:58;100715.59;;;-1.13;71.70
84809;BME280;75044;53.126;18.008;2024-01-06T00:58:01;100719.02;;;-1.12;71.96
84809;BME280;75044;53.126;18.008;2024-01-06T00:59:04;100723.45;;;-1.10;72.00
84809;BME280;75044;53.126;18.008;2024-01-06T01:00:08;100731.49;;;-1.08;71.98
84809;BME280;75044;53.126;18.008;2024-01-06T01:01:11;100734.23;;;-1.08;71.85
84809;BME280;75044;53.126;18.008;2024-01-06T01:02:16;100736.64;;;-1.08;71.78
84809;BME280;75044;53.126;18.008;2024-01-06T01:03:19;100737.66;;;-1.08;72.05
84809;BME280;75044;53.126;18.008;2024-01-06T01:04:23;100739.70;;;-1.07;71.92
84809;BME280;75044;53.126;18.008;2024-01-06T01:05:27;100741.09;;;-1.08;71.84
84809;BME280;75044;53.126;18.008;2024-01-06T01:06:32;100738.34;;;-1.07;72.08
84809;BME280;75044;53.126;18.008;2024-01-06T01:07:36;100742.09;;;-1.07;71.76
84809;BME280;75044;53.126;18.008;2024-01-06T01:08:39;100742.96;;;-1.08;71.95
84809;BME280;75044;53.126;18.008;2024-01-06T01:09:42;100740.05;;;-1.08;72.15
84809;BME280;75044;53.126;18.008;2024-01-06T01:10:46;100743.46;;;-1.07;71.94
84809;BME280;75044;53.126;18.008;2024-01-06T01:11:49;100746.38;;;-1.07;72.21
84809;BME280;75044;53.126;18.008;2024-01-06T01:12:52;100747.92;;;-1.07;71.99
84809;BME280;75044;53.126;18.008;2024-01-06T01:13:56;100746.38;;;-1.07;71.81
84809;BME280;75044;53.126;18.008;2024-01-06T01:14:59;100748.10;;;-1.08;72.06
84809;BME280;75044;53.126;18.008;2024-01-06T01:16:02;100744.66;;;-1.07;71.94
84809;BME280;75044;53.126;18.008;2024-01-06T01:17:06;100743.47;;;-1.07;71.97
84809;BME280;75044;53.126;18.008;2024-01-06T01:18:11;100739.52;;;-1.07;71.97
84809;BME280;75044;53.126;18.008;2024-01-06T01:19:14;100738.16;;;-1.07;71.90
84809;BME280;75044;53.126;18.008;2024-01-06T01:20:19;100741.62;;;-1.10;72.05
84809;BME280;75044;53.126;18.008;2024-01-06T01:21:23;100742.67;;;-1.13;71.94
84809;BME280;75044;53.126;18.008;2024-01-06T01:22:26;100744.23;;;-1.15;72.03
84809;BME280;75044;53.126;18.008;2024-01-06T01:23:29;100746.48;;;-1.17;71.92
84809;BME280;75044;53.126;18.008;2024-01-06T01:24:33;100745.64;;;-1.19;72.09
84809;BME280;75044;53.126;18.008;2024-01-06T01:25:36;100742.89;;;-1.19;72.40
84809;BME280;75044;53.126;18.008;2024-01-06T01:26:39;100741.54;;;-1.21;72.39
84809;BME280;75044;53.126;18.008;2024-01-06T01:27:43;100741.20;;;-1.22;72.30
84809;BME280;75044;53.126;18.008;2024-01-06T01:28:46;100742.58;;;-1.22;72.17
84809;BME280;75044;53.126;18.008;2024-01-06T01:29:49;100739.17;;;-1.24;72.39
84809;BME280;75044;53.126;18.008;2024-01-06T01:30:55;100736.59;;;-1.23;72.25
84809;BME280;75044;53.126;18.008;2024-01-06T01:31:59;100741.05;;;-1.24;72.32
84809;BME280;75044;53.126;18.008;2024-01-06T01:33:04;100744.14;;;-1.24;72.62
84809;BME280;75044;53.126;18.008;2024-01-06T01:34:08;100744.82;;;-1.24;72.45
84809;BME280;75044;53.126;18.008;2024-01-06T01:35:11;100740.02;;;-1.25;72.41
84809;BME280;75044;53.126;18.008;2024-01-06T01:36:15;100745.51;;;-1.24;72.48
84809;BME280;75044;53.126;18.008;2024-01-06T01:37:19;100744.29;;;-1.23;72.60
84809;BME280;75044;53.126;18.008;2024-01-06T01:38:22;100749.27;;;-1.22;72.52
84809;BME280;75044;53.126;18.008;2024-01-06T01:39:26;100746.67;;;-1.20;72.58
84809;BME280;75044;53.126;18.008;2024-01-06T01:40:29;100749.39;;;-1.19;72.57
84809;BME280;75044;53.126;18.008;2024-01-06T01:41:32;100750.58;;;-1.17;72.35
84809;BME280;75044;53.126;18.008;2024-01-06T01:42:36;100748.69;;;-1.16;72.50
84809;BME280;75044;53.126;18.008;2024-01-06T01:43:40;100752.45;;;-1.15;72.41
84809;BME280;75044;53.126;18.008;2024-01-06T01:44:43;100750.56;;;-1.14;72.44
84809;BME280;75044;53.126;18.008;2024-01-06T01:45:53;100751.58;;;-1.13;72.56
84809;BME280;75044;53.126;18.008;2024-01-06T01:46:57;100753.46;;;-1.12;72.60
84809;BME280;75044;53.126;18.008;2024-01-06T01:48:06;100758.58;;;-1.10;72.35
84809;BME280;75044;53.126;18.008;2024-01-06T01:49:10;100755.30;;;-1.08;72.41
84809;BME280;75044;53.126;18.008;2024-01-06T01:50:13;100754.26;;;-1.06;72.40
84809;BME280;75044;53.126;18.008;2024-01-06T01:51:18;100756.98;;;-1.04;72.46
84809;BME280;75044;53.126;18.008;2024-01-06T01:52:22;100754.05;;;-1.02;72.33
84809;BME280;75044;53.126;18.008;2024-01-06T01:53:25;100755.06;;;-1.00;72.33
84809;BME280;75044;53.126;18.008;2024-01-06T01:54:29;100756.45;;;-1.01;72.39
84809;BME280;75044;53.126;18.008;2024-01-06T01:55:32;100757.98;;;-1.03;72.28
84809;BME280;75044;53.126;18.008;2024-01-06T01:56:36;100756.13;;;-1.04;72.34
84809;BME280;75044;53.126;18.008;2024-01-06T01:57:40;100755.77;;;-1.04;72.45
84809;BME280;75044;53.126;18.008;2024-01-06T01:58:44;100756.13;;;-1.04;72.37
84809;BME280;75044;53.126;18.008;2024-01-06T01:59:48;100755.27;;;-1.06;72.40
84809;BME280;75044;53.126;18.008;2024-01-06T02:00:52;100752.38;;;-1.06;72.22
84809;BME280;75044;53.126;18.008;2024-01-06T02:01:56;100753.06;;;-1.07;72.23
84809;BME280;75044;53.126;18.008;2024-01-06T02:03:00;100751.70;;;-1.08;72.27
84809;BME280;75044;53.126;18.008;2024-01-06T02:04:06;100749.63;;;-1.07;72.17
84809;BME280;75044;53.126;18.008;2024-01-06T02:05:11;100753.23;;;-1.06;72.14
84809;BME280;75044;53.126;18.008;2024-01-06T02:06:15;100750.14;;;-1.04;72.20
84809;BME280;75044;53.126;18.008;2024-01-06T02:07:18;100753.02;;;-1.03;72.39
84809;BME280;75044;53.126;18.008;2024-01-06T02:08:23;100754.23;;;-1.02;72.25
84809;BME280;75044;53.126;18.008;2024-01-06T02:09:27;100754.22;;;-1.02;72.24
84809;BME280;75044;53.126;18.008;2024-01-06T02:10:32;100755.75;;;-1.00;72.35
84809;BME280;75044;53.126;18.008;2024-01-06T02:11:36;100762.59;;;-0.99;72.30
84809;BME280;75044;53.126;18.008;2024-01-06T02:12:39;100760.52;;;-0.97;72.33
84809;BME280;75044;53.126;18.008;2024-01-06T02:13:42;100762.21;;;-0.96;72.10
84809;BME280;75044;53.126;18.008;2024-01-06T02:14:46;100761.00;;;-0.95;71.95
84809;BME280;75044;53.126;18.008;2024-01-06T02:15:52;100760.66;;;-0.94;71.91
84809;BME280;75044;53.126;18.008;2024-01-06T02:16:56;100760.30;;;-0.92;72.04
84809;BME280;75044;53.126;18.008;2024-01-06T02:17:59;100757.89;;;-0.92;72.01
84809;BME280;75044;53.126;18.008;2024-01-06T02:19:02;100754.82;;;-0.92;71.98
84809;BME280;75044;53.126;18.008;2024-01-06T02:20:09;100750.88;;;-0.92;72.16
84809;BME280;75044;53.126;18.008;2024-01-06T02:21:13;100750.36;;;-0.92;72.04
84809;BME280;75044;53.126;18.008;2024-01-06T02:22:17;100750.52;;;-0.92;72.03
84809;BME280;75044;53.126;18.008;2024-01-06T02:23:20;100749.99;;;-0.91;72.08
84809;BME280;75044;53.126;18.008;2024-01-06T02:24:24;100751.90;;;-0.92;72.11
84809;BME280;75044;53.126;18.008;2024-01-06T02:25:27;100749.00;;;-0.93;72.00
84809;BME280;75044;53.126;18.008;2024-01-06T02:26:30;100746.59;;;-0.94;71.95
84809;BME280;75044;53.126;18.008;2024-01-06T02:27:33;100747.64;;;-0.95;71.90
84809;BME280;75044;53.126;18.008;2024-01-06T02:28:37;100746.44;;;-0.95;71.94
84809;BME280;75044;53.126;18.008;2024-01-06T02:29:40;100748.18;;;-0.98;72.03
84809;BME280;75044;53.126;18.008;2024-01-06T02:30:43;100744.59;;;-0.99;71.92
84809;BME280;75044;53.126;18.008;2024-01-06T02:31:46;100745.45;;;-0.98;72.04
84809;BME280;75044;53.126;18.008;2024-01-06T02:32:49;100747.52;;;-1.00;72.01
84809;BME280;75044;53.126;18.008;2024-01-06T02:33:53;100746.00;;;-1.02;72.05
84809;BME280;75044;53.126;18.008;2024-01-06T02:34:56;100745.15;;;-1.04;72.14
84809;BME280;75044;53.126;18.008;2024-01-06T02:36:00;100746.20;;;-1.06;72.26
84809;BME280;75044;53.126;18.008;2024-01-06T02:37:03;100744.33;;;-1.06;72.09
84809;BME280;75044;53.126;18.008;2024-01-06T02:38:07;100746.73;;;-1.06;72.37
84809;BME280;75044;53.126;18.008;2024-01-06T02:39:12;100748.94;;;-1.05;72.34
84809;BME280;75044;53.126;18.008;2024-01-06T02:40:16;100746.90;;;-1.07;72.28
84809;BME280;75044;53.126;18.008;2024-01-06T02:41:19;100750.15;;;-1.07;72.17
84809;BME280;75044;53.126;18.008;2024-01-06T02:42:22;100752.21;;;-1.07;72.43
84809;BME280;75044;53.126;18.008;2024-01-06T02:43:27;100749.28;;;-1.06;72.43
84809;BME280;75044;53.126;18.008;2024-01-06T02:44:30;100749.29;;;-1.07;72.06
84809;BME280;75044;53.126;18.008;2024-01-06T02:45:33;100749.48;;;-1.08;72.31
84809;BME280;75044;53.126;18.008;2024-01-06T02:46:37;100749.16;;;-1.11;72.27
84809;BME280;75044;53.126;18.008;2024-01-06T02:47:40;100747.10;;;-1.11;72.24
84809;BME280;75044;53.126;18.008;2024-01-06T02:48:43;100748.13;;;-1.10;72.14
84809;BME280;75044;53.126;18.008;2024-01-06T02:49:47;100745.73;;;-1.10;72.37
84809;BME280;75044;53.126;18.008;2024-01-06T02:50:50;100746.58;;;-1.10;72.29
84809;BME280;75044;53.126;18.008;2024-01-06T02:51:55;100745.37;;;-1.08;72.21
84809;BME280;75044;53.126;18.008;2024-01-06T02:53:00;100743.30;;;-1.07;72.24
84809;BME280;75044;53.126;18.008;2024-01-06T02:54:04;100743.47;;;-1.06;72.11
84809;BME280;75044;53.126;18.008;2024-01-06T02:55:08;100744.99;;;-1.04;72.15
84809;BME280;75044;53.126;18.008;2024-01-06T02:56:12;100743.09;;;-1.03;72.21
84809;BME280;75044;53.126;18.008;2024-01-06T02:57:15;100742.23;;;-1.02;72.13
84809;BME280;75044;53.126;18.008;2024-01-06T02:58:18;100741.02;;;-1.01;72.16
84809;BME280;75044;53.126;18.008;2024-01-06T02:59:22;100742.74;;;-1.02;72.07
84809;BME280;75044;53.126;18.008;2024-01-06T03:00:25;100745.67;;;-1.04;72.07
84809;BME280;75044;53.126;18.008;2024-01-06T03:01:28;100749.30;;;-1.07;72.20
84809;BME280;75044;53.126;18.008;2024-01-06T03:02:32;100749.66;;;-1.09;72.33
84809;BME280;75044;53.126;18.008;2024-01-06T03:03:36;100752.92;;;-1.12;72.41
84809;BME280;75044;53.126;18.008;2024-01-06T03:04:39;100753.63;;;-1.12;72.38
84809;BME280;75044;53.126;18.008;2024-01-06T03:05:42;100757.23;;;-1.11;72.19
84809;BME280;75044;53.126;18.008;2024-01-06T03:06:46;100755.34;;;-1.13;72.34
84809;BME280;75044;53.126;18.008;2024-01-06T03:07:54;100755.34;;;-1.13;72.30
84809;BME280;75044;53.126;18.008;2024-01-06T03:08:58;100759.80;;;-1.12;72.46
84809;BME280;75044;53.126;18.008;2024-01-06T03:10:02;100755.69;;;-1.12;72.49
84809;BME280;75044;53.126;18.008;2024-01-06T03:11:07;100756.35;;;-1.11;72.21
84809;BME280;75044;53.126;18.008;2024-01-06T03:12:13;100758.06;;;-1.10;72.28
84809;BME280;75044;53.126;18.008;2024-01-06T03:13:17;100759.58;;;-1.07;72.42
84809;BME280;75044;53.126;18.008;2024-01-06T03:14:20;100757.84;;;-1.05;72.40
84809;BME280;75044;53.126;18.008;2024-01-06T03:15:25;100763.48;;;-1.03;72.42
84809;BME280;75044;53.126;18.008;2024-01-06T03:16:28;100766.73;;;-1.02;72.30
84809;BME280;75044;53.126;18.008;2024-01-06T03:17:32;100763.14;;;-1.03;72.16
84809;BME280;75044;53.126;18.008;2024-01-06T03:18:35;100761.59;;;-1.02;72.26
84809;BME280;75044;53.126;18.008;2024-01-06T03:19:38;100760.23;;;-1.05;72.13
84809;BME280;75044;53.126;18.008;2024-01-06T03:20:42;100765.19;;;-1.02;72.23
84809;BME280;75044;53.126;18.008;2024-01-06T03:21:46;100765.54;;;-1.03;72.12
84809;BME280;75044;53.126;18.008;2024-01-06T03:22:49;100766.56;;;-1.02;72.06
84809;BME280;75044;53.126;18.008;2024-01-06T03:23:52;100766.20;;;-1.01;72.43
84809;BME280;75044;53.126;18.008;2024-01-06T03:24:58;100764.67;;;-1.03;72.01
84809;BME280;75044;53.126;18.008;2024-01-06T03:26:05;100765.88;;;-1.04;72.24
84809;BME280;75044;53.126;18.008;2024-01-06T03:27:10;100764.50;;;-1.02;72.30
84809;BME280;75044;53.126;18.008;2024-01-06T03:28:13;100760.73;;;-1.02;72.30
84809;BME280;75044;53.126;18.008;2024-01-06T03:29:16;100763.78;;;-0.99;72.09
84809;BME280;75044;53.126;18.008;2024-01-06T03:30:20;100763.96;;;-0.99;72.07
84809;BME280;75044;53.126;18.008;2024-01-06T03:31:23;100765.34;;;-1.00;72.29
84809;BME280;75044;53.126;18.008;2024-01-06T03:32:26;100761.73;;;-0.99;72.08
84809;BME280;75044;53.126;18.008;2024-01-06T03:33:31;100761.22;;;-0.99;72.09
84809;BME280;75044;53.126;18.008;2024-01-06T03:34:34;100760.52;;;-0.99;71.85
84809;BME280;75044;53.126;18.008;2024-01-06T03:35:37;100764.98;;;-0.99;72.02
84809;BME280;75044;53.126;18.008;2024-01-06T03:36:41;100767.55;;;-0.98;71.74
84809;BME280;75044;53.126;18.008;2024-01-06T03:37:44;100764.14;;;-0.99;71.74
84809;BME280;75044;53.126;18.008;2024-01-06T03:38:47;100768.95;;;-1.02;71.54
84809;BME280;75044;53.126;18.008;2024-01-06T03:39:50;100768.63;;;-1.04;71.70
84809;BME280;75044;53.126;18.008;2024-01-06T03:40:54;100771.23;;;-1.07;71.71
84809;BME280;75044;53.126;18.008;2024-01-06T03:41:57;100772.77;;;-1.08;72.09
84809;BME280;75044;53.126;18.008;2024-01-06T03:43:00;100771.93;;;-1.09;71.82
84809;BME280;75044;53.126;18.008;2024-01-06T03:44:03;100770.90;;;-1.10;71.84
84809;BME280;75044;53.126;18.008;2024-01-06T03:45:06;100771.44;;;-1.13;71.79
84809;BME280;75044;53.126;18.008;2024-01-06T03:46:10;100769.23;;;-1.15;71.67
84809;BME280;75044;53.126;18.008;2024-01-06T03:47:13;100772.68;;;-1.17;72.00
84809;BME280;75044;53.126;18.008;2024-01-06T03:48:16;100770.80;;;-1.18;71.95
84809;BME280;75044;53.126;18.008;2024-01-06T03:49:19;100769.78;;;-1.19;71.90
84809;BME280;75044;53.126;18.008;2024-01-06T03:50:23;100766.01;;;-1.19;71.88
84809;BME280;75044;53.126;18.008;2024-01-06T03:51:26;100760.88;;;-1.18;72.08
84809;BME280;75044;53.126;18.008;2024-01-06T03:52:30;100756.23;;;-1.16;72.14
84809;BME280;75044;53.126;18.008;2024-01-06T03:53:33;100758.10;;;-1.15;72.25
84809;BME280;75044;53.126;18.008;2024-01-06T03:54:36;100756.21;;;-1.14;72.12
84809;BME280;75044;53.126;18.008;2024-01-06T03:55:40;100760.67;;;-1.14;72.21
84809;BME280;75044;53.126;18.008;2024-01-06T03:56:43;100763.07;;;-1.15;72.04
84809;BME280;75044;53.126;18.008;2024-01-06T03:57:46;100759.65;;;-1.16;72.10
84809;BME280;75044;53.126;18.008;2024-01-06T03:58:52;100761.20;;;-1.16;72.08
84809;BME280;75044;53.126;18.008;2024-01-06T03:59:56;100763.95;;;-1.16;72.14
84809;BME280;75044;53.126;18.008;2024-01-06T04:00:59;100766.34;;;-1.17;72.07
84809;BME280;75044;53.126;18.008;2024-01-06T04:02:03;100765.30;;;-1.15;72.15
84809;BME280;75044;53.126;18.008;2024-01-06T04:03:06;100767.00;;;-1.13;72.09
84809;BME280;75044;53.126;18.008;2024-01-06T04:04:10;100764.94;;;-1.13;72.12
84809;BME280;75044;53.126;18.008;2024-01-06T04:05:13;100769.73;;;-1.12;72.03
84809;BME280;75044;53.126;18.008;2024-01-06T04:06:17;100771.25;;;-1.10;72.02
84809;BME280;75044;53.126;18.008;2024-01-06T04:07:20;100771.92;;;-1.09;72.15
84809;BME280;75044;53.126;18.008;2024-01-06T04:08:24;100769.53;;;-1.08;72.04
84809;BME280;75044;53.126;18.008;2024-01-06T04:09:27;100769.52;;;-1.07;72.10
84809;BME280;75044;53.126;18.008;2024-01-06T04:10:30;100770.72;;;-1.07;72.23
84809;BME280;75044;53.126;18.008;2024-01-06T04:11:35;100768.65;;;-1.07;72.13
84809;BME280;75044;53.126;18.008;2024-01-06T04:12:38;100768.64;;;-1.06;72.00
84809;BME280;75044;53.126;18.008;2024-01-06T04:13:41;100773.10;;;-1.07;72.11
84809;BME280;75044;53.126;18.008;2024-01-06T04:14:44;100772.93;;;-1.07;72.16
84809;BME280;75044;53.126;18.008;2024-01-06T04:15:48;100776.02;;;-1.06;72.02
84809;BME280;75044;53.126;18.008;2024-01-06T04:16:51;100774.97;;;-1.05;71.95
84809;BME280;75044;53.126;18.008;2024-01-06T04:17:56;100778.06;;;-1.04;72.10
84809;BME280;75044;53.126;18.008;2024-01-06T04:18:59;100777.38;;;-1.05;71.78
84809;BME280;75044;53.126;18.008;2024-01-06T04:20:02;100782.70;;;-1.06;71.94
84809;BME280;75044;53.126;18.008;2024-01-06T04:21:07;100780.82;;;-1.07;71.90
84809;BME280;75044;53.126;18.008;2024-01-06T04:22:12;100782.70;;;-1.06;71.70
84809;BME280;75044;53.126;18.008;2024-01-06T04:23:15;100783.71;;;-1.05;72.02
84809;BME280;75044;53.126;18.008;2024-01-06T04:24:19;100789.37;;;-1.04;71.73
84809;BME280;75044;53.126;18.008;2024-01-06T04:25:22;100789.88;;;-1.03;71.84
84809;BME280;75044;53.126;18.008;2024-01-06T04:26:25;100792.09;;;-1.02;71.89
84809;BME280;75044;53.126;18.008;2024-01-06T04:27:29;100792.75;;;-0.99;71.79
84809;BME280;75044;53.126;18.008;2024-01-06T04:28:32;100796.50;;;-0.98;71.91
84809;BME280;75044;53.126;18.008;2024-01-06T04:29:36;100792.39;;;-0.98;71.91
84809;BME280;75044;53.126;18.008;2024-01-06T04:30:39;100796.35;;;-0.99;71.87
84809;BME280;75044;53.126;18.008;2024-01-06T04:31:42;100793.79;;;-1.00;71.57
84809;BME280;75044;53.126;18.008;2024-01-06T04:32:47;100790.88;;;-1.01;71.51
84809;BME280;75044;53.126;18.008;2024-01-06T04:33:51;100791.41;;;-1.02;71.53
84809;BME280;75044;53.126;18.008;2024-01-06T04:34:54;100790.23;;;-1.05;71.65
84809;BME280;75044;53.126;18.008;2024-01-06T04:36:01;100796.91;;;-1.04;71.50
84809;BME280;75044;53.126;18.008;2024-01-06T04:37:05;100796.92;;;-1.06;71.68
84809;BME280;75044;53.126;18.008;2024-01-06T04:38:10;100795.22;;;-1.07;71.69
84809;BME280;75044;53.126;18.008;2024-01-06T04:39:13;100796.91;;;-1.05;71.62
84809;BME280;75044;53.126;18.008;2024-01-06T04:40:16;100797.40;;;-1.03;71.60
84809;BME280;75044;53.126;18.008;2024-01-06T04:41:21;100796.05;;;-1.03;71.60
84809;BME280;75044;53.126;18.008;2024-01-06T04:42:25;100797.06;;;-1.02;71.77
84809;BME280;75044;53.126;18.008;2024-01-06T04:43:28;100796.34;;;-1.00;71.51
84809;BME280;75044;53.126;18.008;2024-01-06T04:44:36;100799.42;;;-0.99;71.43
84809;BME280;75044;53.126;18.008;2024-01-06T04:45:39;100795.48;;;-0.99;71.33
84809;BME280;75044;53.126;18.008;2024-01-06T04:46:43;100798.06;;;-1.01;71.37
84809;BME280;75044;53.126;18.008;2024-01-06T04:47:48;100802.70;;;-1.01;71.11
84809;BME280;75044;53.126;18.008;2024-01-06T04:48:53;100800.30;;;-1.00;71.41
84809;BME280;75044;53.126;18.008;2024-01-06T04:49:56;100800.83;;;-1.00;71.21
84809;BME280;75044;53.126;18.008;2024-01-06T04:51:00;100801.50;;;-0.99;71.32
84809;BME280;75044;53.126;18.008;2024-01-06T04:52:06;100801.83;;;-0.99;71.23
84809;BME280;75044;53.126;18.008;2024-01-06T04:53:10;100801.30;;;-0.99;71.25
84809;BME280;75044;53.126;18.008;2024-01-06T04:54:13;100802.18;;;-1.00;71.37
84809;BME280;75044;53.126;18.008;2024-01-06T04:55:16;100803.73;;;-1.00;71.36
84809;BME280;75044;53.126;18.008;2024-01-06T04:56:20;100809.06;;;-1.02;71.29
84809;BME280;75044;53.126;18.008;2024-01-06T04:57:23;100810.77;;;-1.04;71.31
84809;BME280;75044;53.126;18.008;2024-01-06T04:58:27;100811.31;;;-1.05;71.29
84809;BME280;75044;53.126;18.008;2024-01-06T04:59:31;100813.86;;;-1.04;71.25
84809;BME280;75044;53.126;18.008;2024-01-06T05:00:34;100813.00;;;-1.03;71.23
84809;BME280;75044;53.126;18.008;2024-01-06T05:01:39;100815.73;;;-1.03;71.07
84809;BME280;75044;53.126;18.008;2024-01-06T05:02:43;100815.58;;;-1.03;71.00
84809;BME280;75044;53.126;18.008;2024-01-06T05:03:48;100814.54;;;-1.03;71.06
84809;BME280;75044;53.126;18.008;2024-01-06T05:04:51;100815.92;;;-1.02;71.31
84809;BME280;75044;53.126;18.008;2024-01-06T05:05:55;100821.20;;;-1.01;71.33
84809;BME280;75044;53.126;18.008;2024-01-06T05:06:58;100820.00;;;-1.00;71.34
84809;BME280;75044;53.126;18.008;2024-01-06T05:08:02;100823.44;;;-1.01;71.53
84809;BME280;75044;53.126;18.008;2024-01-06T05:09:06;100821.56;;;-1.02;71.69
84809;BME280;75044;53.126;18.008;2024-01-06T05:10:09;100825.14;;;-0.99;71.43
84809;BME280;75044;53.126;18.008;2024-01-06T05:11:14;100823.44;;;-1.00;71.44
84809;BME280;75044;53.126;18.008;2024-01-06T05:12:17;100821.02;;;-1.00;71.01
84809;BME280;75044;53.126;18.008;2024-01-06T05:13:20;100823.10;;;-1.01;71.03
84809;BME280;75044;53.126;18.008;2024-01-06T05:14:26;100822.25;;;-1.02;71.10
84809;BME280;75044;53.126;18.008;2024-01-06T05:15:29;100821.05;;;-1.01;70.99
84809;BME280;75044;53.126;18.008;2024-01-06T05:16:33;100811.95;;;-1.01;71.05
84809;BME280;75044;53.126;18.008;2024-01-06T05:17:36;100816.08;;;-1.02;71.04
84809;BME280;75044;53.126;18.008;2024-01-06T05:18:40;100813.88;;;-1.05;71.18
84809;BME280;75044;53.126;18.008;2024-01-06T05:19:43;100817.13;;;-1.05;71.23
84809;BME280;75044;53.126;18.008;2024-01-06T05:20:46;100817.98;;;-1.05;71.21
84809;BME280;75044;53.126;18.008;2024-01-06T05:21:50;100817.98;;;-1.06;71.25
84809;BME280;75044;53.126;18.008;2024-01-06T05:22:53;100816.61;;;-1.05;71.20
84809;BME280;75044;53.126;18.008;2024-01-06T05:23:57;100817.64;;;-1.05;71.12
84809;BME280;75044;53.126;18.008;2024-01-06T05:25:00;100817.47;;;-1.04;71.05
84809;BME280;75044;53.126;18.008;2024-01-06T05:26:05;100818.49;;;-1.04;71.02
84809;BME280;75044;53.126;18.008;2024-01-06T05:27:09;100817.13;;;-1.05;70.89
84809;BME280;75044;53.126;18.008;2024-01-06T05:28:12;100817.14;;;-1.04;71.07
84809;BME280;75044;53.126;18.008;2024-01-06T05:29:16;100817.47;;;-1.04;70.81